Historyczne dane pomiarowe

Dodano dane terminowe – wersja testowa.

Dane z okresu 1951-2019

Wersja bazy: 1.34 [2019-03-16, lista zmian], aktualizacja planowana na 2019-04-15

Dane meteo z obszaru Polski uzyskane na podstawie danych udostępnionych przez Instytut Meteorologii i Gospodarki Wodnej – Państwowy Instytut Badawczy.

 

Wybierz Datę:    

       

TemperaturaWilgotnośćWiatrCiśnienieOpadyŚniegCzas trwania zjawisk
 Stacja t tx tn tng RH VA  wxwx mslp ppp RRR   cm mm wxwxwxwxwxwxwx
1956-11-09 -5.6 -1.3 -7.9-12.7 92.0- 1.7 0.3---- 0.0------------
1956-11-08 -3.9 1.4 -8.5-13.2 80.8- 3.0 0.0---- 0.0------------
1956-11-07 0.1 2.5 -1.5 -2.5 87.8- 5.3 5.7---- 0.0------------
1956-11-06 1.6 5.3 -0.3 -2.4 82.5- 2.3 8.7---- 0.2------------
1956-11-05 3.7 5.4 -5.2-11.1 94.5- 8.0 4.3---- 1.8------------
1956-11-04 -1.4 3.1 -3.8 -4.1 83.3- 3.7 0.3---- 0.0------------
1956-11-03 -0.1 6.1 -5.8 -8.9 89.8- 7.0 1.3---- 0.5------------
1956-11-02 -1.7 0.7 -5.9-10.6 90.8- 4.0 2.0---- 0.2------------
1956-11-01 -2.7 5.9 -9.4-14.8 80.5- 0.0 1.0---- 0.0------------
1956-10-31 -4.3 1.4 -6.8 -3.0 95.5- 5.3 4.7---- 0.0------------
1956-10-30 3.3 6.9 0.8 1.0 91.8- 7.3 2.3---- 0.0------------
1956-10-29 4.2 9.6 -0.1 -5.6 91.8- 6.0 1.7---- 0.0------------
1956-10-28 9.1 12.4 6.3 2.5 92.0- 6.7 2.7---- 4.4------------
1956-10-27 8.3 11.7 3.8 0.5 95.5- 6.7 3.3---- 0.8------------
1956-10-26 7.2 12.7 0.3 -2.0 96.3- 5.3 0.0---- 0.0------------
1956-10-25 6.9 17.0 0.8 -2.5 90.3- 3.0 0.3---- 0.0------------
1956-10-24 9.0 16.4 3.7 2.0 92.5- 3.7 0.3---- 0.0------------
1956-10-23 6.6 15.6 1.9 -1.5 93.3- 4.7 0.3---- 0.0------------
1956-10-22 9.6 18.5 5.3 0.5 92.8- 3.7 1.7---- 0.0------------
1956-10-21 10.3 17.5 7.3 4.6 92.8- 4.3 1.0---- 0.0------------
1956-10-20 11.3 13.3 9.5 5.0 94.8- 8.0 0.7---- 1.0------------
1956-10-19 12.0 14.4 8.0 5.9 85.8- 7.3 3.3---- 0.5------------
1956-10-18 8.6 14.5 -1.6 -5.7 89.3- 6.0 2.0---- 1.1------------
1956-10-17 3.5 11.8 -2.4 -7.1 88.8- 0.0 1.0---- 0.0------------
1956-10-16 4.0 12.2 -2.0 -6.6 87.0- 0.0 0.3---- 0.0------------
1956-10-15 3.3 11.6 -1.4 -7.1 88.8- 1.0 1.0---- 0.0------------
1956-10-14 6.8 12.5 2.1 6.9 84.5- 3.7 7.0---- 4.2------------
1956-10-13 9.3 11.2 5.0 -0.6 82.5- 8.0 12.0---- 0.0------------
1956-10-12 7.3 13.1 2.9 -0.2 88.8- 5.3 2.7---- 0.0------------
1956-10-11 4.4 10.3 -0.1 -4.0 85.3- 5.3 1.0---- 0.0------------
1956-10-10 3.6 8.3 1.8 0.0 83.5- 1.7 1.7---- 0.0------------
1956-10-09 5.8 10.2 -1.1 -5.4 88.3- 4.3 2.0---- 0.0------------
1956-10-08 3.8 9.5 0.9 -2.2 91.3- 2.3 2.7---- 0.0------------
1956-10-07 5.3 8.6 2.1 1.4 90.8- 7.3 7.7---- 1.1------------
1956-10-06 5.6 10.1 0.3 8.4 95.0- 8.0 6.3---- 25.8------------
1956-10-05 10.5 16.3 5.9 7.1 88.0- 3.0 1.7---- 5.6------------
1956-10-04 10.8 13.1 9.5 5.0 96.0- 5.3 1.3---- 9.2------------
1956-10-03 14.6 23.6 9.1 4.2 78.8- 5.3 3.7---- 1.0------------
1956-10-02 15.2 26.6 6.6 2.5 79.0- 0.7 1.7---- 0.0------------
1956-10-01 15.2 24.5 5.3 2.0 83.0- 0.3 1.0---- 0.0------------
1956-09-30 13.1 19.2 9.9 6.3 89.8- 4.7 0.7---- 0.0------------
1956-09-29 16.8 22.0 8.6 2.9 76.3- 3.7 3.7---- 0.0------------
1956-09-28 13.4 19.6 8.1 4.2 86.0- 2.7 3.0---- 0.0------------
1956-09-27 14.4 23.9 5.8 6.3 76.5- 1.3 2.0---- 0.0------------
1956-09-26 11.4 24.8 0.8 -0.5 83.0- 0.0 1.3---- 0.0------------
1956-09-25 10.3 20.7 0.3 -4.1 86.5- 0.7 1.3---- 0.0------------
1956-09-24 9.0 15.9 3.2 -2.0 70.3- 0.0 6.3---- 0.0------------
1956-09-23 11.2 18.2 6.1 0.0 83.0- 0.7 4.3---- 0.0------------
1956-09-22 11.2 19.6 1.8 -1.8 82.3- 0.0 2.0---- 0.0------------
1956-09-21 9.7 19.5 1.3 -2.5 86.8- 0.0 0.3---- 0.0------------
1956-09-20 8.5 17.0 -0.4 -4.6 86.8- 3.0 0.0---- 0.0------------
1956-09-19 6.5 15.5 0.1 -3.4 88.3- 2.0 1.0---- 0.0------------
1956-09-18 7.1 13.5 4.8 2.4 88.8- 4.7 2.7---- 0.0------------
1956-09-17 7.4 11.5 4.2 6.6 95.8- 6.3 4.3---- 4.0------------
1956-09-16 11.5 17.5 5.6 3.3 78.8- 4.3 3.7---- 0.0------------
1956-09-15 9.7 17.6 2.6 -0.8 86.0- 5.0 2.3---- 0.0------------
1956-09-14 10.0 14.1 5.2 5.1 87.8- 4.0 5.3---- 0.0------------
1956-09-13 8.1 13.8 6.9 5.3 92.3- 5.0 4.3---- 2.9------------
1956-09-12 11.4 16.5 7.7 9.2 91.3- 8.0 5.7---- 9.2------------
1956-09-11 14.4 19.5 12.1 10.9 93.5- 6.3 2.7---- 5.1------------
244.5 ms

 

Źródłem pochodzenia danych jest Instytut Meteorologii i Gospodarki Wodnej – Państwowy Instytut Badawczy. Dane Instytutu Meteorologii i Gospodarki Wodnej – Państwowego Instytutu Badawczego zostały przetworzone.

Dane źródłowe można odnaleźć na stronie https://dane.imgw.pl